sensor_id;sensor_type;location;lat;lon;timestamp;P1;durP1;ratioP1;P2;durP2;ratioP2
63217;SDS011;49314;48.278;16.378;2023-05-07T00:00:57;7.53;;;7.03;;
63217;SDS011;49314;48.278;16.378;2023-05-07T00:03:24;8.95;;;8.35;;
63217;SDS011;49314;48.278;16.378;2023-05-07T00:05:49;7.95;;;7.45;;
63217;SDS011;49314;48.278;16.378;2023-05-07T00:08:15;7.93;;;7.53;;
63217;SDS011;49314;48.278;16.378;2023-05-07T00:10:40;9.30;;;8.70;;
63217;SDS011;49314;48.278;16.378;2023-05-07T00:13:05;9.45;;;8.77;;
63217;SDS011;49314;48.278;16.378;2023-05-07T00:15:30;8.20;;;7.60;;
63217;SDS011;49314;48.278;16.378;2023-05-07T00:17:56;7.80;;;7.10;;
63217;SDS011;49314;48.278;16.378;2023-05-07T00:20:22;5.35;;;5.05;;
63217;SDS011;49314;48.278;16.378;2023-05-07T00:22:47;7.30;;;6.97;;
63217;SDS011;49314;48.278;16.378;2023-05-07T00:25:12;6.70;;;6.25;;
63217;SDS011;49314;48.278;16.378;2023-05-07T00:27:38;6.90;;;6.57;;
63217;SDS011;49314;48.278;16.378;2023-05-07T00:30:03;6.65;;;6.28;;
63217;SDS011;49314;48.278;16.378;2023-05-07T00:32:28;7.22;;;6.63;;
63217;SDS011;49314;48.278;16.378;2023-05-07T00:34:54;6.13;;;5.83;;
63217;SDS011;49314;48.278;16.378;2023-05-07T00:37:19;6.93;;;5.68;;
63217;SDS011;49314;48.278;16.378;2023-05-07T00:39:44;8.85;;;7.30;;
63217;SDS011;49314;48.278;16.378;2023-05-07T00:42:10;6.68;;;6.15;;
63217;SDS011;49314;48.278;16.378;2023-05-07T00:44:35;5.80;;;5.50;;
63217;SDS011;49314;48.278;16.378;2023-05-07T00:47:01;7.13;;;6.55;;
63217;SDS011;49314;48.278;16.378;2023-05-07T00:49:32;5.82;;;5.53;;
63217;SDS011;49314;48.278;16.378;2023-05-07T00:51:59;5.72;;;5.47;;
63217;SDS011;49314;48.278;16.378;2023-05-07T00:54:25;7.95;;;7.47;;
63217;SDS011;49314;48.278;16.378;2023-05-07T00:56:50;6.28;;;5.68;;
63217;SDS011;49314;48.278;16.378;2023-05-07T00:59:16;4.85;;;4.53;;
63217;SDS011;49314;48.278;16.378;2023-05-07T01:01:41;7.35;;;7.05;;
63217;SDS011;49314;48.278;16.378;2023-05-07T01:04:06;8.18;;;7.60;;
63217;SDS011;49314;48.278;16.378;2023-05-07T01:06:32;7.30;;;6.80;;
63217;SDS011;49314;48.278;16.378;2023-05-07T01:08:58;6.60;;;6.35;;
63217;SDS011;49314;48.278;16.378;2023-05-07T01:11:23;6.60;;;5.85;;
63217;SDS011;49314;48.278;16.378;2023-05-07T01:13:50;6.57;;;6.00;;
63217;SDS011;49314;48.278;16.378;2023-05-07T01:16:15;7.65;;;7.28;;
63217;SDS011;49314;48.278;16.378;2023-05-07T01:18:41;6.68;;;6.38;;
63217;SDS011;49314;48.278;16.378;2023-05-07T01:21:06;9.90;;;9.43;;
63217;SDS011;49314;48.278;16.378;2023-05-07T01:23:32;7.20;;;6.70;;
63217;SDS011;49314;48.278;16.378;2023-05-07T01:25:58;8.88;;;8.43;;
63217;SDS011;49314;48.278;16.378;2023-05-07T01:28:23;9.17;;;8.47;;
63217;SDS011;49314;48.278;16.378;2023-05-07T01:30:56;8.63;;;7.80;;
63217;SDS011;49314;48.278;16.378;2023-05-07T01:33:23;8.30;;;7.80;;
63217;SDS011;49314;48.278;16.378;2023-05-07T01:35:50;6.65;;;6.30;;
63217;SDS011;49314;48.278;16.378;2023-05-07T01:38:16;8.25;;;7.47;;
63217;SDS011;49314;48.278;16.378;2023-05-07T01:40:41;7.65;;;7.05;;
63217;SDS011;49314;48.278;16.378;2023-05-07T01:43:07;8.40;;;7.35;;
63217;SDS011;49314;48.278;16.378;2023-05-07T01:45:32;8.13;;;7.70;;
63217;SDS011;49314;48.278;16.378;2023-05-07T01:48:00;7.40;;;6.85;;
63217;SDS011;49314;48.278;16.378;2023-05-07T01:50:25;9.55;;;9.15;;
63217;SDS011;49314;48.278;16.378;2023-05-07T01:52:51;9.93;;;9.23;;
63217;SDS011;49314;48.278;16.378;2023-05-07T01:55:16;7.78;;;7.38;;
63217;SDS011;49314;48.278;16.378;2023-05-07T01:57:42;8.60;;;8.20;;
63217;SDS011;49314;48.278;16.378;2023-05-07T02:00:07;9.93;;;9.40;;
63217;SDS011;49314;48.278;16.378;2023-05-07T02:02:34;6.72;;;6.32;;
63217;SDS011;49314;48.278;16.378;2023-05-07T02:04:59;9.65;;;9.05;;
63217;SDS011;49314;48.278;16.378;2023-05-07T02:07:24;7.80;;;7.28;;
63217;SDS011;49314;48.278;16.378;2023-05-07T02:09:50;9.23;;;8.73;;
63217;SDS011;49314;48.278;16.378;2023-05-07T02:12:15;9.60;;;9.13;;
63217;SDS011;49314;48.278;16.378;2023-05-07T02:14:40;6.00;;;5.70;;
63217;SDS011;49314;48.278;16.378;2023-05-07T02:17:05;9.13;;;8.50;;
63217;SDS011;49314;48.278;16.378;2023-05-07T02:19:31;9.82;;;9.23;;
63217;SDS011;49314;48.278;16.378;2023-05-07T02:21:56;8.85;;;8.40;;
63217;SDS011;49314;48.278;16.378;2023-05-07T02:24:21;8.00;;;7.50;;
63217;SDS011;49314;48.278;16.378;2023-05-07T02:26:46;8.95;;;8.32;;
63217;SDS011;49314;48.278;16.378;2023-05-07T02:29:12;7.60;;;7.20;;
63217;SDS011;49314;48.278;16.378;2023-05-07T02:31:37;9.30;;;8.63;;
63217;SDS011;49314;48.278;16.378;2023-05-07T02:34:02;7.95;;;7.45;;
63217;SDS011;49314;48.278;16.378;2023-05-07T02:36:27;11.47;;;10.37;;
63217;SDS011;49314;48.278;16.378;2023-05-07T02:38:53;8.73;;;8.20;;
63217;SDS011;49314;48.278;16.378;2023-05-07T02:41:18;8.63;;;8.05;;
63217;SDS011;49314;48.278;16.378;2023-05-07T02:43:45;8.73;;;7.90;;
63217;SDS011;49314;48.278;16.378;2023-05-07T02:46:10;9.97;;;9.47;;
63217;SDS011;49314;48.278;16.378;2023-05-07T02:48:35;8.90;;;8.18;;
63217;SDS011;49314;48.278;16.378;2023-05-07T02:51:01;10.57;;;9.73;;
63217;SDS011;49314;48.278;16.378;2023-05-07T02:53:27;10.10;;;9.23;;
63217;SDS011;49314;48.278;16.378;2023-05-07T02:55:56;10.23;;;9.48;;
63217;SDS011;49314;48.278;16.378;2023-05-07T02:58:21;11.38;;;10.55;;
63217;SDS011;49314;48.278;16.378;2023-05-07T03:00:47;9.00;;;8.43;;
63217;SDS011;49314;48.278;16.378;2023-05-07T03:03:12;11.02;;;10.23;;
63217;SDS011;49314;48.278;16.378;2023-05-07T03:05:37;9.32;;;8.63;;
63217;SDS011;49314;48.278;16.378;2023-05-07T03:08:03;11.83;;;11.13;;
63217;SDS011;49314;48.278;16.378;2023-05-07T03:10:29;11.63;;;10.80;;
63217;SDS011;49314;48.278;16.378;2023-05-07T03:12:54;10.15;;;9.43;;
63217;SDS011;49314;48.278;16.378;2023-05-07T03:15:19;8.75;;;8.07;;
63217;SDS011;49314;48.278;16.378;2023-05-07T03:17:44;10.87;;;10.20;;
63217;SDS011;49314;48.278;16.378;2023-05-07T03:20:10;11.73;;;10.80;;
63217;SDS011;49314;48.278;16.378;2023-05-07T03:22:35;10.45;;;9.80;;
63217;SDS011;49314;48.278;16.378;2023-05-07T03:25:01;12.43;;;11.63;;
63217;SDS011;49314;48.278;16.378;2023-05-07T03:27:26;10.98;;;9.95;;
63217;SDS011;49314;48.278;16.378;2023-05-07T03:29:51;12.20;;;11.35;;
63217;SDS011;49314;48.278;16.378;2023-05-07T03:32:16;11.40;;;10.63;;
63217;SDS011;49314;48.278;16.378;2023-05-07T03:34:42;10.93;;;10.18;;
63217;SDS011;49314;48.278;16.378;2023-05-07T03:37:07;11.35;;;10.57;;
63217;SDS011;49314;48.278;16.378;2023-05-07T03:39:32;13.55;;;12.65;;
63217;SDS011;49314;48.278;16.378;2023-05-07T03:41:57;14.13;;;13.13;;
63217;SDS011;49314;48.278;16.378;2023-05-07T03:44:23;10.88;;;10.13;;
63217;SDS011;49314;48.278;16.378;2023-05-07T03:46:48;12.20;;;11.07;;
63217;SDS011;49314;48.278;16.378;2023-05-07T03:49:13;14.85;;;13.70;;
63217;SDS011;49314;48.278;16.378;2023-05-07T03:51:38;13.50;;;12.60;;
63217;SDS011;49314;48.278;16.378;2023-05-07T03:54:04;15.95;;;14.75;;
63217;SDS011;49314;48.278;16.378;2023-05-07T03:56:29;14.32;;;13.30;;
63217;SDS011;49314;48.278;16.378;2023-05-07T03:58:56;16.48;;;15.38;;
63217;SDS011;49314;48.278;16.378;2023-05-07T04:01:21;14.13;;;13.05;;
63217;SDS011;49314;48.278;16.378;2023-05-07T04:03:46;15.70;;;14.63;;
63217;SDS011;49314;48.278;16.378;2023-05-07T04:06:11;18.67;;;17.17;;
63217;SDS011;49314;48.278;16.378;2023-05-07T04:08:37;17.77;;;16.38;;
63217;SDS011;49314;48.278;16.378;2023-05-07T04:11:02;16.87;;;15.57;;
63217;SDS011;49314;48.278;16.378;2023-05-07T04:13:27;17.95;;;16.55;;
63217;SDS011;49314;48.278;16.378;2023-05-07T04:15:54;17.58;;;16.00;;
63217;SDS011;49314;48.278;16.378;2023-05-07T04:18:20;17.27;;;15.80;;
63217;SDS011;49314;48.278;16.378;2023-05-07T04:20:46;17.05;;;15.65;;
63217;SDS011;49314;48.278;16.378;2023-05-07T04:23:11;16.75;;;15.38;;
63217;SDS011;49314;48.278;16.378;2023-05-07T04:25:36;15.85;;;14.45;;
63217;SDS011;49314;48.278;16.378;2023-05-07T04:28:02;19.37;;;17.73;;
63217;SDS011;49314;48.278;16.378;2023-05-07T04:30:27;15.77;;;14.57;;
63217;SDS011;49314;48.278;16.378;2023-05-07T04:32:52;17.50;;;15.77;;
63217;SDS011;49314;48.278;16.378;2023-05-07T04:35:18;16.77;;;15.35;;
63217;SDS011;49314;48.278;16.378;2023-05-07T04:37:43;16.63;;;15.13;;
63217;SDS011;49314;48.278;16.378;2023-05-07T04:40:08;17.05;;;15.50;;
63217;SDS011;49314;48.278;16.378;2023-05-07T04:42:34;16.38;;;15.07;;
63217;SDS011;49314;48.278;16.378;2023-05-07T04:44:59;19.30;;;17.80;;
63217;SDS011;49314;48.278;16.378;2023-05-07T04:47:25;18.80;;;17.20;;
63217;SDS011;49314;48.278;16.378;2023-05-07T04:49:50;18.58;;;17.00;;
63217;SDS011;49314;48.278;16.378;2023-05-07T04:52:15;18.13;;;16.67;;
63217;SDS011;49314;48.278;16.378;2023-05-07T04:54:41;18.17;;;16.88;;
63217;SDS011;49314;48.278;16.378;2023-05-07T04:57:07;19.60;;;18.10;;
63217;SDS011;49314;48.278;16.378;2023-05-07T04:59:32;19.40;;;17.63;;
63217;SDS011;49314;48.278;16.378;2023-05-07T05:01:57;19.48;;;17.88;;
63217;SDS011;49314;48.278;16.378;2023-05-07T05:04:23;22.40;;;20.33;;
63217;SDS011;49314;48.278;16.378;2023-05-07T05:06:48;21.27;;;19.33;;
63217;SDS011;49314;48.278;16.378;2023-05-07T05:09:13;19.00;;;17.43;;
63217;SDS011;49314;48.278;16.378;2023-05-07T05:11:39;20.20;;;18.40;;
63217;SDS011;49314;48.278;16.378;2023-05-07T05:14:04;18.58;;;17.08;;
63217;SDS011;49314;48.278;16.378;2023-05-07T05:16:30;21.60;;;19.75;;
63217;SDS011;49314;48.278;16.378;2023-05-07T05:18:55;21.65;;;19.83;;
63217;SDS011;49314;48.278;16.378;2023-05-07T05:21:20;21.93;;;19.83;;
63217;SDS011;49314;48.278;16.378;2023-05-07T05:23:49;21.15;;;19.35;;
63217;SDS011;49314;48.278;16.378;2023-05-07T05:26:14;23.45;;;21.55;;
63217;SDS011;49314;48.278;16.378;2023-05-07T05:28:40;23.33;;;21.13;;
63217;SDS011;49314;48.278;16.378;2023-05-07T05:31:05;24.95;;;22.60;;
63217;SDS011;49314;48.278;16.378;2023-05-07T05:33:30;25.50;;;23.17;;
63217;SDS011;49314;48.278;16.378;2023-05-07T05:35:55;25.67;;;23.27;;
63217;SDS011;49314;48.278;16.378;2023-05-07T05:38:21;25.47;;;23.07;;
63217;SDS011;49314;48.278;16.378;2023-05-07T05:40:46;24.93;;;22.70;;
63217;SDS011;49314;48.278;16.378;2023-05-07T05:43:11;25.85;;;23.52;;
63217;SDS011;49314;48.278;16.378;2023-05-07T05:45:36;27.20;;;24.90;;
63217;SDS011;49314;48.278;16.378;2023-05-07T05:48:02;25.80;;;23.50;;
63217;SDS011;49314;48.278;16.378;2023-05-07T05:50:27;24.60;;;22.40;;
63217;SDS011;49314;48.278;16.378;2023-05-07T05:52:52;23.63;;;21.43;;
63217;SDS011;49314;48.278;16.378;2023-05-07T05:55:18;23.90;;;21.90;;
63217;SDS011;49314;48.278;16.378;2023-05-07T05:57:43;25.33;;;22.85;;
63217;SDS011;49314;48.278;16.378;2023-05-07T06:00:08;24.15;;;22.15;;
63217;SDS011;49314;48.278;16.378;2023-05-07T06:02:34;25.02;;;22.52;;
63217;SDS011;49314;48.278;16.378;2023-05-07T06:04:59;25.20;;;23.10;;
63217;SDS011;49314;48.278;16.378;2023-05-07T06:07:24;25.80;;;23.55;;
63217;SDS011;49314;48.278;16.378;2023-05-07T06:09:50;24.63;;;22.33;;
63217;SDS011;49314;48.278;16.378;2023-05-07T06:12:15;24.30;;;22.10;;
63217;SDS011;49314;48.278;16.378;2023-05-07T06:14:42;25.67;;;23.45;;
63217;SDS011;49314;48.278;16.378;2023-05-07T06:17:07;25.17;;;22.95;;
63217;SDS011;49314;48.278;16.378;2023-05-07T06:19:32;27.50;;;24.63;;
63217;SDS011;49314;48.278;16.378;2023-05-07T06:21:58;23.20;;;21.10;;
63217;SDS011;49314;48.278;16.378;2023-05-07T06:24:23;23.98;;;21.45;;
63217;SDS011;49314;48.278;16.378;2023-05-07T06:26:49;21.13;;;19.42;;
63217;SDS011;49314;48.278;16.378;2023-05-07T06:29:14;24.13;;;21.67;;
63217;SDS011;49314;48.278;16.378;2023-05-07T06:31:40;22.23;;;20.13;;
63217;SDS011;49314;48.278;16.378;2023-05-07T06:34:05;22.97;;;20.80;;
63217;SDS011;49314;48.278;16.378;2023-05-07T06:36:30;23.60;;;21.42;;
63217;SDS011;49314;48.278;16.378;2023-05-07T06:38:55;22.17;;;20.37;;
63217;SDS011;49314;48.278;16.378;2023-05-07T06:41:21;19.80;;;18.30;;
63217;SDS011;49314;48.278;16.378;2023-05-07T06:43:46;20.80;;;19.10;;
63217;SDS011;49314;48.278;16.378;2023-05-07T06:46:11;21.83;;;20.13;;
63217;SDS011;49314;48.278;16.378;2023-05-07T06:48:37;23.73;;;21.67;;
63217;SDS011;49314;48.278;16.378;2023-05-07T06:51:02;23.55;;;21.23;;
63217;SDS011;49314;48.278;16.378;2023-05-07T06:53:27;22.55;;;20.45;;
63217;SDS011;49314;48.278;16.378;2023-05-07T06:55:54;23.08;;;20.98;;
63217;SDS011;49314;48.278;16.378;2023-05-07T06:58:19;22.43;;;20.63;;
63217;SDS011;49314;48.278;16.378;2023-05-07T07:00:44;22.85;;;20.92;;
63217;SDS011;49314;48.278;16.378;2023-05-07T07:03:10;23.23;;;20.90;;
63217;SDS011;49314;48.278;16.378;2023-05-07T07:05:36;23.08;;;21.13;;
63217;SDS011;49314;48.278;16.378;2023-05-07T07:08:01;23.67;;;21.38;;
63217;SDS011;49314;48.278;16.378;2023-05-07T07:10:26;24.38;;;22.27;;
63217;SDS011;49314;48.278;16.378;2023-05-07T07:12:51;22.10;;;20.30;;
63217;SDS011;49314;48.278;16.378;2023-05-07T07:15:17;24.02;;;21.85;;
63217;SDS011;49314;48.278;16.378;2023-05-07T07:17:43;24.65;;;22.55;;
63217;SDS011;49314;48.278;16.378;2023-05-07T07:20:08;24.77;;;22.37;;
63217;SDS011;49314;48.278;16.378;2023-05-07T07:22:33;23.58;;;21.58;;
63217;SDS011;49314;48.278;16.378;2023-05-07T07:24:58;26.27;;;24.07;;
63217;SDS011;49314;48.278;16.378;2023-05-07T07:27:24;24.38;;;22.38;;
63217;SDS011;49314;48.278;16.378;2023-05-07T07:29:50;24.42;;;22.23;;
63217;SDS011;49314;48.278;16.378;2023-05-07T07:32:15;26.48;;;23.98;;
63217;SDS011;49314;48.278;16.378;2023-05-07T07:34:40;24.75;;;22.50;;
63217;SDS011;49314;48.278;16.378;2023-05-07T07:37:06;25.30;;;23.17;;
63217;SDS011;49314;48.278;16.378;2023-05-07T07:39:31;23.15;;;21.05;;
63217;SDS011;49314;48.278;16.378;2023-05-07T07:41:57;25.58;;;23.35;;
63217;SDS011;49314;48.278;16.378;2023-05-07T07:44:22;22.03;;;20.03;;
63217;SDS011;49314;48.278;16.378;2023-05-07T07:46:47;23.25;;;21.00;;
63217;SDS011;49314;48.278;16.378;2023-05-07T07:49:12;22.37;;;20.43;;
63217;SDS011;49314;48.278;16.378;2023-05-07T07:51:38;21.60;;;19.60;;
63217;SDS011;49314;48.278;16.378;2023-05-07T07:54:03;21.95;;;20.08;;
63217;SDS011;49314;48.278;16.378;2023-05-07T07:56:28;20.05;;;18.30;;
63217;SDS011;49314;48.278;16.378;2023-05-07T07:58:53;20.57;;;18.73;;
63217;SDS011;49314;48.278;16.378;2023-05-07T08:01:19;21.00;;;19.17;;
63217;SDS011;49314;48.278;16.378;2023-05-07T08:03:44;19.95;;;18.25;;
63217;SDS011;49314;48.278;16.378;2023-05-07T08:06:10;22.83;;;20.92;;
63217;SDS011;49314;48.278;16.378;2023-05-07T08:08:35;19.45;;;17.90;;
63217;SDS011;49314;48.278;16.378;2023-05-07T08:11:00;17.38;;;15.77;;
63217;SDS011;49314;48.278;16.378;2023-05-07T08:13:26;17.70;;;16.00;;
63217;SDS011;49314;48.278;16.378;2023-05-07T08:15:51;17.07;;;15.67;;
63217;SDS011;49314;48.278;16.378;2023-05-07T08:18:16;15.03;;;13.73;;
63217;SDS011;49314;48.278;16.378;2023-05-07T08:20:41;15.77;;;14.43;;
63217;SDS011;49314;48.278;16.378;2023-05-07T08:23:07;15.13;;;13.75;;
63217;SDS011;49314;48.278;16.378;2023-05-07T08:25:33;16.55;;;15.15;;
63217;SDS011;49314;48.278;16.378;2023-05-07T08:27:58;14.52;;;13.23;;
63217;SDS011;49314;48.278;16.378;2023-05-07T08:30:24;14.43;;;13.27;;
63217;SDS011;49314;48.278;16.378;2023-05-07T08:32:49;15.20;;;13.98;;
63217;SDS011;49314;48.278;16.378;2023-05-07T08:35:15;13.80;;;12.65;;
63217;SDS011;49314;48.278;16.378;2023-05-07T08:37:40;15.98;;;14.63;;
63217;SDS011;49314;48.278;16.378;2023-05-07T08:40:05;14.20;;;13.03;;
63217;SDS011;49314;48.278;16.378;2023-05-07T08:42:31;15.55;;;14.15;;
63217;SDS011;49314;48.278;16.378;2023-05-07T08:44:57;13.45;;;12.35;;
63217;SDS011;49314;48.278;16.378;2023-05-07T08:47:22;13.90;;;12.70;;
63217;SDS011;49314;48.278;16.378;2023-05-07T08:49:49;13.75;;;12.57;;
63217;SDS011;49314;48.278;16.378;2023-05-07T08:52:15;14.07;;;12.90;;
63217;SDS011;49314;48.278;16.378;2023-05-07T08:54:41;16.38;;;15.07;;
63217;SDS011;49314;48.278;16.378;2023-05-07T08:57:08;15.80;;;14.50;;
63217;SDS011;49314;48.278;16.378;2023-05-07T08:59:33;13.65;;;12.57;;
63217;SDS011;49314;48.278;16.378;2023-05-07T09:01:58;12.83;;;11.77;;
63217;SDS011;49314;48.278;16.378;2023-05-07T09:04:23;13.93;;;12.83;;
63217;SDS011;49314;48.278;16.378;2023-05-07T09:06:49;13.53;;;12.43;;
63217;SDS011;49314;48.278;16.378;2023-05-07T09:09:16;13.98;;;12.82;;
63217;SDS011;49314;48.278;16.378;2023-05-07T09:11:43;14.02;;;12.70;;
63217;SDS011;49314;48.278;16.378;2023-05-07T09:14:08;12.90;;;11.87;;
63217;SDS011;49314;48.278;16.378;2023-05-07T09:16:34;13.20;;;12.20;;
63217;SDS011;49314;48.278;16.378;2023-05-07T09:18:59;11.80;;;10.87;;
63217;SDS011;49314;48.278;16.378;2023-05-07T09:21:27;14.10;;;12.90;;
63217;SDS011;49314;48.278;16.378;2023-05-07T09:23:54;13.50;;;12.40;;
63217;SDS011;49314;48.278;16.378;2023-05-07T09:26:22;13.45;;;12.32;;
63217;SDS011;49314;48.278;16.378;2023-05-07T09:28:48;12.88;;;11.77;;
63217;SDS011;49314;48.278;16.378;2023-05-07T09:31:13;12.73;;;11.47;;
63217;SDS011;49314;48.278;16.378;2023-05-07T09:33:39;12.80;;;11.53;;
63217;SDS011;49314;48.278;16.378;2023-05-07T09:36:05;12.77;;;11.75;;
63217;SDS011;49314;48.278;16.378;2023-05-07T09:38:31;12.82;;;11.65;;
63217;SDS011;49314;48.278;16.378;2023-05-07T09:41:07;14.10;;;13.00;;
63217;SDS011;49314;48.278;16.378;2023-05-07T09:46:52;13.05;;;12.05;;
63217;SDS011;49314;48.278;16.378;2023-05-07T09:49:20;12.05;;;11.13;;
63217;SDS011;49314;48.278;16.378;2023-05-07T09:51:47;12.55;;;11.65;;
63217;SDS011;49314;48.278;16.378;2023-05-07T09:54:14;13.15;;;12.02;;
63217;SDS011;49314;48.278;16.378;2023-05-07T09:56:39;12.93;;;11.73;;
63217;SDS011;49314;48.278;16.378;2023-05-07T09:59:07;11.15;;;10.25;;
63217;SDS011;49314;48.278;16.378;2023-05-07T10:01:32;11.45;;;10.55;;
63217;SDS011;49314;48.278;16.378;2023-05-07T10:03:58;13.57;;;12.40;;
63217;SDS011;49314;48.278;16.378;2023-05-07T10:06:24;11.98;;;10.98;;
63217;SDS011;49314;48.278;16.378;2023-05-07T10:08:51;13.30;;;12.27;;
63217;SDS011;49314;48.278;16.378;2023-05-07T10:11:16;13.48;;;12.40;;
63217;SDS011;49314;48.278;16.378;2023-05-07T10:13:42;13.02;;;12.02;;
63217;SDS011;49314;48.278;16.378;2023-05-07T10:16:07;12.60;;;11.43;;
63217;SDS011;49314;48.278;16.378;2023-05-07T10:18:33;13.17;;;12.07;;
63217;SDS011;49314;48.278;16.378;2023-05-07T10:21:07;13.52;;;12.43;;
63217;SDS011;49314;48.278;16.378;2023-05-07T10:23:33;12.50;;;11.48;;
63217;SDS011;49314;48.278;16.378;2023-05-07T10:25:58;13.70;;;12.48;;
63217;SDS011;49314;48.278;16.378;2023-05-07T10:28:24;13.90;;;12.77;;
63217;SDS011;49314;48.278;16.378;2023-05-07T10:33:18;14.45;;;13.15;;
63217;SDS011;49314;48.278;16.378;2023-05-07T10:35:44;13.13;;;12.13;;
63217;SDS011;49314;48.278;16.378;2023-05-07T10:38:10;13.95;;;12.65;;
63217;SDS011;49314;48.278;16.378;2023-05-07T10:40:35;13.50;;;12.35;;
63217;SDS011;49314;48.278;16.378;2023-05-07T10:43:01;14.70;;;11.50;;
63217;SDS011;49314;48.278;16.378;2023-05-07T10:45:27;12.55;;;11.45;;
63217;SDS011;49314;48.278;16.378;2023-05-07T10:50:47;12.25;;;11.18;;
63217;SDS011;49314;48.278;16.378;2023-05-07T10:55:45;11.85;;;10.75;;
63217;SDS011;49314;48.278;16.378;2023-05-07T10:58:22;10.48;;;9.65;;
63217;SDS011;49314;48.278;16.378;2023-05-07T11:00:50;10.15;;;9.35;;
63217;SDS011;49314;48.278;16.378;2023-05-07T11:03:16;11.07;;;10.18;;
63217;SDS011;49314;48.278;16.378;2023-05-07T11:05:41;9.10;;;8.30;;
63217;SDS011;49314;48.278;16.378;2023-05-07T11:08:07;10.88;;;9.85;;
63217;SDS011;49314;48.278;16.378;2023-05-07T11:10:52;10.82;;;9.95;;
63217;SDS011;49314;48.278;16.378;2023-05-07T11:13:18;11.02;;;10.02;;
63217;SDS011;49314;48.278;16.378;2023-05-07T11:15:47;10.45;;;9.35;;
63217;SDS011;49314;48.278;16.378;2023-05-07T11:18:13;9.73;;;8.80;;
63217;SDS011;49314;48.278;16.378;2023-05-07T11:20:49;9.65;;;8.82;;
63217;SDS011;49314;48.278;16.378;2023-05-07T11:26:07;8.90;;;8.20;;
63217;SDS011;49314;48.278;16.378;2023-05-07T11:28:36;9.57;;;8.88;;
63217;SDS011;49314;48.278;16.378;2023-05-07T11:31:02;9.23;;;8.43;;
63217;SDS011;49314;48.278;16.378;2023-05-07T11:33:27;9.63;;;8.82;;
63217;SDS011;49314;48.278;16.378;2023-05-07T11:35:53;9.03;;;8.23;;
63217;SDS011;49314;48.278;16.378;2023-05-07T11:38:19;10.82;;;10.00;;
63217;SDS011;49314;48.278;16.378;2023-05-07T11:40:55;10.45;;;9.55;;
63217;SDS011;49314;48.278;16.378;2023-05-07T11:43:20;9.00;;;8.30;;
63217;SDS011;49314;48.278;16.378;2023-05-07T11:45:46;10.13;;;9.23;;
63217;SDS011;49314;48.278;16.378;2023-05-07T11:48:14;9.10;;;8.38;;
63217;SDS011;49314;48.278;16.378;2023-05-07T11:53:41;8.93;;;8.27;;
63217;SDS011;49314;48.278;16.378;2023-05-07T11:56:07;10.30;;;9.55;;
63217;SDS011;49314;48.278;16.378;2023-05-07T11:58:35;9.57;;;8.73;;
63217;SDS011;49314;48.278;16.378;2023-05-07T12:01:01;8.82;;;8.18;;
63217;SDS011;49314;48.278;16.378;2023-05-07T12:03:29;9.57;;;8.85;;
63217;SDS011;49314;48.278;16.378;2023-05-07T12:05:54;13.70;;;9.02;;
63217;SDS011;49314;48.278;16.378;2023-05-07T12:08:20;9.40;;;8.68;;
63217;SDS011;49314;48.278;16.378;2023-05-07T12:10:46;8.38;;;7.68;;
63217;SDS011;49314;48.278;16.378;2023-05-07T12:13:19;9.02;;;8.13;;
63217;SDS011;49314;48.278;16.378;2023-05-07T12:15:44;8.95;;;8.25;;
63217;SDS011;49314;48.278;16.378;2023-05-07T12:18:11;8.87;;;8.17;;
63217;SDS011;49314;48.278;16.378;2023-05-07T12:20:36;10.07;;;9.30;;
63217;SDS011;49314;48.278;16.378;2023-05-07T12:23:02;9.95;;;9.15;;
63217;SDS011;49314;48.278;16.378;2023-05-07T12:25:31;9.55;;;8.00;;
63217;SDS011;49314;48.278;16.378;2023-05-07T12:27:56;8.85;;;8.15;;
63217;SDS011;49314;48.278;16.378;2023-05-07T12:30:24;8.10;;;7.40;;
63217;SDS011;49314;48.278;16.378;2023-05-07T12:32:53;7.90;;;7.30;;
63217;SDS011;49314;48.278;16.378;2023-05-07T12:35:26;6.80;;;6.30;;
63217;SDS011;49314;48.278;16.378;2023-05-07T12:37:54;7.47;;;6.88;;
63217;SDS011;49314;48.278;16.378;2023-05-07T12:40:19;6.43;;;5.93;;
63217;SDS011;49314;48.278;16.378;2023-05-07T12:42:45;6.68;;;6.18;;
63217;SDS011;49314;48.278;16.378;2023-05-07T12:45:14;6.70;;;6.20;;
63217;SDS011;49314;48.278;16.378;2023-05-07T12:47:43;5.78;;;5.20;;
63217;SDS011;49314;48.278;16.378;2023-05-07T12:50:08;6.43;;;5.88;;
63217;SDS011;49314;48.278;16.378;2023-05-07T12:52:34;6.20;;;5.80;;
63217;SDS011;49314;48.278;16.378;2023-05-07T12:55:05;5.95;;;5.50;;
63217;SDS011;49314;48.278;16.378;2023-05-07T12:57:37;6.70;;;6.18;;
63217;SDS011;49314;48.278;16.378;2023-05-07T13:00:02;5.80;;;5.32;;
63217;SDS011;49314;48.278;16.378;2023-05-07T13:02:34;7.15;;;6.55;;
63217;SDS011;49314;48.278;16.378;2023-05-07T13:05:02;5.93;;;5.53;;
63217;SDS011;49314;48.278;16.378;2023-05-07T13:07:27;7.32;;;6.63;;
63217;SDS011;49314;48.278;16.378;2023-05-07T13:09:52;6.37;;;5.87;;
63217;SDS011;49314;48.278;16.378;2023-05-07T13:12:18;6.53;;;6.10;;
63217;SDS011;49314;48.278;16.378;2023-05-07T13:14:43;6.10;;;5.50;;
63217;SDS011;49314;48.278;16.378;2023-05-07T13:17:08;7.23;;;5.83;;
63217;SDS011;49314;48.278;16.378;2023-05-07T13:19:33;5.97;;;5.57;;
63217;SDS011;49314;48.278;16.378;2023-05-07T13:21:59;6.00;;;5.60;;
63217;SDS011;49314;48.278;16.378;2023-05-07T13:24:24;6.20;;;5.70;;
63217;SDS011;49314;48.278;16.378;2023-05-07T13:26:49;6.17;;;5.70;;
63217;SDS011;49314;48.278;16.378;2023-05-07T13:29:15;6.32;;;5.80;;
63217;SDS011;49314;48.278;16.378;2023-05-07T13:31:40;7.05;;;5.38;;
63217;SDS011;49314;48.278;16.378;2023-05-07T13:34:08;7.07;;;6.38;;
63217;SDS011;49314;48.278;16.378;2023-05-07T13:36:34;5.70;;;5.20;;
63217;SDS011;49314;48.278;16.378;2023-05-07T13:39:02;5.15;;;4.80;;
63217;SDS011;49314;48.278;16.378;2023-05-07T13:41:27;5.10;;;4.70;;
63217;SDS011;49314;48.278;16.378;2023-05-07T13:43:53;4.87;;;4.47;;
63217;SDS011;49314;48.278;16.378;2023-05-07T13:46:18;8.13;;;7.47;;
63217;SDS011;49314;48.278;16.378;2023-05-07T13:48:43;6.10;;;5.17;;
63217;SDS011;49314;48.278;16.378;2023-05-07T13:51:08;5.20;;;4.73;;
63217;SDS011;49314;48.278;16.378;2023-05-07T13:53:34;5.63;;;5.07;;
63217;SDS011;49314;48.278;16.378;2023-05-07T13:56:00;4.90;;;4.50;;
63217;SDS011;49314;48.278;16.378;2023-05-07T13:58:26;5.80;;;5.18;;
63217;SDS011;49314;48.278;16.378;2023-05-07T14:00:51;5.27;;;4.87;;
63217;SDS011;49314;48.278;16.378;2023-05-07T14:03:17;5.22;;;4.82;;
63217;SDS011;49314;48.278;16.378;2023-05-07T14:05:44;4.65;;;4.25;;
63217;SDS011;49314;48.278;16.378;2023-05-07T14:08:09;5.88;;;4.90;;
63217;SDS011;49314;48.278;16.378;2023-05-07T14:10:35;5.60;;;5.10;;
63217;SDS011;49314;48.278;16.378;2023-05-07T14:13:01;5.35;;;4.85;;
63217;SDS011;49314;48.278;16.378;2023-05-07T14:15:26;4.75;;;4.25;;
63217;SDS011;49314;48.278;16.378;2023-05-07T14:17:51;5.13;;;4.70;;
63217;SDS011;49314;48.278;16.378;2023-05-07T14:20:17;4.27;;;3.97;;
63217;SDS011;49314;48.278;16.378;2023-05-07T14:22:42;4.47;;;4.07;;
63217;SDS011;49314;48.278;16.378;2023-05-07T14:25:07;4.77;;;4.47;;
63217;SDS011;49314;48.278;16.378;2023-05-07T14:27:34;4.78;;;4.22;;
63217;SDS011;49314;48.278;16.378;2023-05-07T14:29:59;5.37;;;4.87;;